createdAt,value
2022-07-26T00:00:19.939Z,2.72
2022-07-26T00:02:48.546Z,2.70
2022-07-26T00:05:17.168Z,2.62
2022-07-26T00:07:45.273Z,2.95
2022-07-26T00:10:13.484Z,2.65
2022-07-26T00:12:40.836Z,2.75
2022-07-26T00:15:10.125Z,3.08
2022-07-26T00:17:38.281Z,2.78
2022-07-26T00:20:06.409Z,2.92
2022-07-26T00:22:36.551Z,2.78
2022-07-26T00:25:07.168Z,2.40
2022-07-26T00:27:37.187Z,2.95
2022-07-26T00:30:07.318Z,2.60
2022-07-26T00:32:34.546Z,2.80
2022-07-26T00:35:01.728Z,2.97
2022-07-26T00:37:29.163Z,2.67
2022-07-26T00:39:56.295Z,2.47
2022-07-26T00:42:23.392Z,2.60
2022-07-26T00:44:50.773Z,2.62
2022-07-26T00:47:18.211Z,2.97
2022-07-26T00:49:45.759Z,2.80
2022-07-26T00:52:13.516Z,3.00
2022-07-26T00:54:43.931Z,3.08
2022-07-26T00:57:12.000Z,2.90
2022-07-26T00:59:40.098Z,3.00
2022-07-26T01:02:09.156Z,2.72
2022-07-26T01:04:36.736Z,2.95
2022-07-26T01:07:15.447Z,2.62
2022-07-26T01:09:43.267Z,2.87
2022-07-26T01:12:11.290Z,3.40
2022-07-26T01:14:38.438Z,3.22
2022-07-26T01:17:05.603Z,3.03
2022-07-26T01:19:33.004Z,2.97
2022-07-26T01:22:00.142Z,3.33
2022-07-26T01:24:27.309Z,3.40
2022-07-26T01:26:57.577Z,2.90
2022-07-26T01:29:34.595Z,3.22
2022-07-26T01:32:05.061Z,4.15
2022-07-26T01:34:32.784Z,3.75
2022-07-26T01:36:59.989Z,3.10
2022-07-26T01:39:27.377Z,3.12
2022-07-26T01:41:54.672Z,3.22
2022-07-26T01:44:23.011Z,3.10
2022-07-26T01:46:50.573Z,3.60
2022-07-26T01:49:17.894Z,3.75
2022-07-26T01:51:45.060Z,3.37
2022-07-26T01:54:12.934Z,3.30
2022-07-26T01:56:40.062Z,4.07
2022-07-26T01:59:07.661Z,3.45
2022-07-26T02:01:38.388Z,3.65
2022-07-26T02:04:09.194Z,4.05
2022-07-26T02:06:37.342Z,3.87
2022-07-26T02:09:07.463Z,3.92
2022-07-26T02:11:35.050Z,3.70
2022-07-26T02:14:03.244Z,3.58
2022-07-26T02:16:30.351Z,3.72
2022-07-26T02:18:57.811Z,3.87
2022-07-26T02:21:24.862Z,3.80
2022-07-26T02:23:51.911Z,3.75
2022-07-26T02:26:19.257Z,3.35
2022-07-26T02:28:46.313Z,3.90
2022-07-26T02:31:15.538Z,3.97
2022-07-26T02:33:43.142Z,3.58
2022-07-26T02:36:10.196Z,3.50
2022-07-26T02:38:37.381Z,3.80
2022-07-26T02:41:06.296Z,3.58
2022-07-26T02:43:33.458Z,3.83
2022-07-26T02:46:01.636Z,4.05
2022-07-26T02:48:32.735Z,3.33
2022-07-26T02:51:00.073Z,3.00
2022-07-26T02:53:27.257Z,3.90
2022-07-26T02:55:54.609Z,3.33
2022-07-26T02:58:21.791Z,3.90
2022-07-26T03:00:48.964Z,3.72
2022-07-26T03:03:16.549Z,3.60
2022-07-26T03:05:43.631Z,3.08
2022-07-26T03:08:10.802Z,3.53
2022-07-26T03:10:38.902Z,3.85
2022-07-26T03:13:05.964Z,3.80
2022-07-26T03:15:33.069Z,4.03
2022-07-26T03:18:00.652Z,3.78
2022-07-26T03:20:27.816Z,3.97
2022-07-26T03:22:55.028Z,3.40
2022-07-26T03:25:22.481Z,3.55
2022-07-26T03:27:49.579Z,3.70
2022-07-26T03:30:16.718Z,3.30
2022-07-26T03:32:52.511Z,3.62
2022-07-26T03:35:19.613Z,3.70
2022-07-26T03:37:46.833Z,3.80
2022-07-26T03:40:18.248Z,3.83
2022-07-26T03:42:47.026Z,3.75
2022-07-26T03:45:15.551Z,3.67
2022-07-26T03:47:43.204Z,3.67
2022-07-26T03:50:11.266Z,2.83
2022-07-26T03:52:38.633Z,3.40
2022-07-26T03:55:26.859Z,3.85
2022-07-26T03:57:54.263Z,3.65
2022-07-26T04:00:21.402Z,3.62
2022-07-26T04:02:48.907Z,3.50
2022-07-26T04:05:16.008Z,3.55
2022-07-26T04:07:53.099Z,3.80
2022-07-26T04:10:22.232Z,3.78
2022-07-26T04:12:50.299Z,3.78
2022-07-26T04:15:19.170Z,3.83
2022-07-26T04:17:48.333Z,4.87
2022-07-26T04:20:16.736Z,4.12
2022-07-26T04:22:44.987Z,4.12
2022-07-26T04:25:12.221Z,3.62
2022-07-26T04:27:39.607Z,3.87
2022-07-26T04:30:14.011Z,3.75
2022-07-26T04:32:43.568Z,3.60
2022-07-26T04:35:12.952Z,3.50
2022-07-26T04:37:41.346Z,3.85
2022-07-26T04:40:10.155Z,3.92
2022-07-26T04:42:39.161Z,4.15
2022-07-26T04:45:08.572Z,4.30
2022-07-26T04:47:36.613Z,4.05
2022-07-26T04:50:04.802Z,3.75
2022-07-26T04:52:31.861Z,4.22
2022-07-26T04:55:01.249Z,4.03
2022-07-26T04:57:28.292Z,3.83
2022-07-26T05:00:16.716Z,4.12
2022-07-26T05:02:42.877Z,3.85
2022-07-26T05:05:10.034Z,3.95
2022-07-26T05:07:45.200Z,3.58
2022-07-26T05:10:13.894Z,4.20
2022-07-26T05:12:41.206Z,4.65
2022-07-26T05:15:13.989Z,4.50
2022-07-26T05:17:43.020Z,3.97
2022-07-26T05:20:12.675Z,4.43
2022-07-26T05:22:39.731Z,4.00
2022-07-26T05:25:08.476Z,4.40
2022-07-26T05:27:35.843Z,4.68
2022-07-26T05:30:03.516Z,4.80
2022-07-26T05:32:30.859Z,4.82
2022-07-26T05:34:57.919Z,6.07
2022-07-26T05:37:24.992Z,5.35
2022-07-26T05:39:52.399Z,5.95
2022-07-26T05:42:19.555Z,6.05
2022-07-26T05:44:46.636Z,5.93
2022-07-26T05:47:14.109Z,5.30
2022-07-26T05:49:41.198Z,5.82
2022-07-26T05:52:09.185Z,5.22
2022-07-26T05:54:36.986Z,5.28
2022-07-26T05:57:04.405Z,5.37
2022-07-26T05:59:31.724Z,5.28
2022-07-26T06:01:59.409Z,4.87
2022-07-26T06:04:27.507Z,4.87
2022-07-26T06:06:55.412Z,5.05
2022-07-26T06:09:27.093Z,5.70
2022-07-26T06:11:54.726Z,5.43
2022-07-26T06:14:22.720Z,5.93
2022-07-26T06:16:50.867Z,5.72
2022-07-26T06:19:18.291Z,5.75
2022-07-26T06:21:46.161Z,6.00
2022-07-26T06:24:13.804Z,6.40
2022-07-26T06:26:41.219Z,5.70
2022-07-26T06:29:08.332Z,5.95
2022-07-26T06:31:35.572Z,5.78
2022-07-26T06:34:03.045Z,6.07
2022-07-26T06:36:31.220Z,5.90
2022-07-26T06:38:59.048Z,5.43
2022-07-26T06:41:26.448Z,5.45
2022-07-26T06:43:53.632Z,4.95
2022-07-26T06:46:21.331Z,5.37
2022-07-26T06:48:53.002Z,5.47
2022-07-26T06:51:20.268Z,5.25
2022-07-26T06:53:47.354Z,5.60
2022-07-26T06:56:17.575Z,5.72
2022-07-26T06:58:45.015Z,4.82
2022-07-26T07:01:12.202Z,5.75
2022-07-26T07:03:39.734Z,5.57
2022-07-26T07:06:07.022Z,5.50
2022-07-26T07:08:34.476Z,5.40
2022-07-26T07:11:02.447Z,4.95
2022-07-26T07:13:30.873Z,5.45
2022-07-26T07:15:58.511Z,5.28
2022-07-26T07:18:25.888Z,4.70
2022-07-26T07:20:52.941Z,5.22
2022-07-26T07:23:22.508Z,4.90
2022-07-26T07:25:50.672Z,4.68
2022-07-26T07:28:18.563Z,5.00
2022-07-26T07:30:47.529Z,4.47
2022-07-26T07:33:22.308Z,4.35
2022-07-26T07:35:51.933Z,4.25
2022-07-26T07:38:19.352Z,4.40
2022-07-26T07:40:46.410Z,4.82
2022-07-26T07:43:13.453Z,4.47
2022-07-26T07:45:40.859Z,4.53
2022-07-26T07:48:07.951Z,4.43
2022-07-26T07:50:35.177Z,4.68
2022-07-26T07:53:02.542Z,4.72
2022-07-26T07:55:41.171Z,4.47
2022-07-26T07:58:11.895Z,4.53
2022-07-26T08:00:39.064Z,3.92
2022-07-26T08:03:08.417Z,4.25
2022-07-26T08:05:35.679Z,3.67
2022-07-26T08:08:08.164Z,4.25
2022-07-26T08:10:35.811Z,4.20
2022-07-26T08:13:09.298Z,4.85
2022-07-26T08:15:39.125Z,4.40
2022-07-26T08:18:06.541Z,4.57
2022-07-26T08:20:36.104Z,4.65
2022-07-26T08:23:04.023Z,4.30
2022-07-26T08:26:01.873Z,4.35
2022-07-26T08:28:51.160Z,4.50
2022-07-26T08:31:47.076Z,4.47
2022-07-26T08:34:34.333Z,4.30
2022-07-26T08:37:21.213Z,4.28
2022-07-26T08:40:08.689Z,4.12
2022-07-26T08:42:56.966Z,4.03
2022-07-26T08:45:45.746Z,4.45
2022-07-26T08:48:36.937Z,4.12
2022-07-26T08:51:26.490Z,4.20
2022-07-26T08:54:14.962Z,4.43
2022-07-26T08:57:02.179Z,4.30
2022-07-26T09:00:18.149Z,4.28
2022-07-26T09:02:45.834Z,4.75
2022-07-26T09:05:13.584Z,4.75
2022-07-26T09:07:41.449Z,4.82
2022-07-26T09:10:10.929Z,4.43
2022-07-26T09:12:38.807Z,4.62
2022-07-26T09:15:08.875Z,4.37
2022-07-26T09:17:41.615Z,5.07
2022-07-26T09:20:17.919Z,3.85
2022-07-26T09:23:03.582Z,4.67
2022-07-26T09:25:39.513Z,3.97
2022-07-26T09:28:28.610Z,4.53
2022-07-26T09:31:00.029Z,5.05
2022-07-26T09:33:43.930Z,4.55
2022-07-26T09:36:11.527Z,4.80
2022-07-26T09:38:44.708Z,4.97
2022-07-26T09:41:19.256Z,4.55
2022-07-26T09:43:51.568Z,4.10
2022-07-26T09:46:21.780Z,4.43
2022-07-26T09:49:19.343Z,4.53
2022-07-26T09:51:47.939Z,5.22
2022-07-26T09:54:33.057Z,4.97
2022-07-26T09:57:01.233Z,5.40
2022-07-26T09:59:29.403Z,4.78
2022-07-26T10:01:58.811Z,6.65
2022-07-26T10:04:26.844Z,6.75
2022-07-26T10:06:54.035Z,7.07
2022-07-26T10:09:23.686Z,7.10
2022-07-26T10:11:55.911Z,7.00
2022-07-26T10:14:36.119Z,6.87
2022-07-26T10:17:29.273Z,7.65
2022-07-26T10:20:01.744Z,7.95
2022-07-26T10:22:43.811Z,7.65
2022-07-26T10:25:17.063Z,7.10
2022-07-26T10:27:48.375Z,7.43
2022-07-26T10:30:18.627Z,7.97
2022-07-26T10:32:58.689Z,7.55
2022-07-26T10:35:34.834Z,8.43
2022-07-26T10:38:13.431Z,8.32
2022-07-26T10:41:06.122Z,7.75
2022-07-26T10:43:42.634Z,8.63
2022-07-26T10:46:15.944Z,7.80
2022-07-26T10:49:09.300Z,8.38
2022-07-26T10:51:39.050Z,8.43
2022-07-26T10:54:11.832Z,7.90
2022-07-26T10:56:39.613Z,7.33
2022-07-26T10:59:07.456Z,8.43
2022-07-26T11:01:35.691Z,7.87
2022-07-26T11:04:03.020Z,7.90
2022-07-26T11:06:30.876Z,8.15
2022-07-26T11:08:57.960Z,7.45
2022-07-26T11:11:32.733Z,7.65
2022-07-26T11:14:11.339Z,7.15
2022-07-26T11:16:56.868Z,6.57
2022-07-26T11:19:25.927Z,6.85
2022-07-26T11:21:59.039Z,6.43
2022-07-26T11:26:55.063Z,6.28
2022-07-26T11:29:38.821Z,6.47
2022-07-26T11:32:20.451Z,6.00
2022-07-26T11:35:02.327Z,6.20
2022-07-26T11:37:30.013Z,6.00
2022-07-26T11:39:57.521Z,6.07
2022-07-26T11:42:24.583Z,6.60
2022-07-26T11:44:53.972Z,5.82
2022-07-26T11:47:26.292Z,5.75
2022-07-26T11:50:12.887Z,5.82
2022-07-26T11:52:41.338Z,6.37
2022-07-26T11:55:09.276Z,6.18
2022-07-26T11:57:36.451Z,6.57
2022-07-26T12:00:04.925Z,7.00
2022-07-26T12:02:38.530Z,6.95
2022-07-26T12:05:21.292Z,7.03
2022-07-26T12:07:59.127Z,6.53
2022-07-26T12:10:27.712Z,6.37
2022-07-26T12:13:16.503Z,6.80
2022-07-26T12:15:52.174Z,6.45
2022-07-26T12:18:37.650Z,6.57
2022-07-26T12:21:08.440Z,6.90
2022-07-26T12:23:46.237Z,6.18
2022-07-26T12:26:22.544Z,6.50
2022-07-26T12:28:49.709Z,5.72
2022-07-26T12:31:43.284Z,6.00
2022-07-26T12:34:10.714Z,5.67
2022-07-26T12:36:38.480Z,6.50
2022-07-26T12:39:05.982Z,6.30
2022-07-26T12:41:36.793Z,6.37
2022-07-26T12:44:11.612Z,6.00
2022-07-26T12:46:39.504Z,5.72
2022-07-26T12:49:06.991Z,6.32
2022-07-26T12:51:34.298Z,6.62
2022-07-26T12:54:01.576Z,6.62
2022-07-26T12:56:29.294Z,6.85
2022-07-26T12:59:01.221Z,7.15
2022-07-26T13:01:30.129Z,6.90
2022-07-26T13:03:57.595Z,7.10
2022-07-26T13:06:24.754Z,6.60
2022-07-26T13:08:52.122Z,6.50
2022-07-26T13:11:19.233Z,6.20
2022-07-26T13:13:46.343Z,6.57
2022-07-26T13:16:13.738Z,5.82
2022-07-26T13:18:40.800Z,6.35
2022-07-26T13:21:08.100Z,5.90
2022-07-26T13:23:35.831Z,6.57
2022-07-26T13:26:03.715Z,5.57
2022-07-26T13:28:31.536Z,4.93
2022-07-26T13:30:59.063Z,5.62
2022-07-26T13:33:26.184Z,5.45
2022-07-26T13:35:53.306Z,5.40
2022-07-26T13:38:23.232Z,5.70
2022-07-26T13:40:53.168Z,5.45
2022-07-26T13:43:20.539Z,4.97
2022-07-26T13:45:47.624Z,5.00
2022-07-26T13:48:15.129Z,4.68
2022-07-26T13:50:42.543Z,4.82
2022-07-26T13:53:09.724Z,5.22
2022-07-26T13:55:36.808Z,5.85
2022-07-26T13:58:09.702Z,5.80
2022-07-26T14:00:37.526Z,5.75
2022-07-26T14:03:04.957Z,5.00
2022-07-26T14:05:32.093Z,6.62
2022-07-26T14:07:59.222Z,5.50
2022-07-26T14:10:26.634Z,5.47
2022-07-26T14:12:53.782Z,6.12
2022-07-26T14:15:23.000Z,6.28
2022-07-26T14:17:52.477Z,6.45
2022-07-26T14:20:21.020Z,6.43
2022-07-26T14:22:49.265Z,6.15
2022-07-26T14:25:16.643Z,7.03
2022-07-26T14:27:43.684Z,6.55
2022-07-26T14:30:11.268Z,7.93
2022-07-26T14:32:38.741Z,7.32
2022-07-26T14:35:06.515Z,7.55
2022-07-26T14:37:42.814Z,7.20
2022-07-26T14:40:13.863Z,7.62
2022-07-26T14:42:41.025Z,7.18
2022-07-26T14:45:09.712Z,7.55
2022-07-26T14:47:37.587Z,7.62
2022-07-26T14:50:07.115Z,7.45
2022-07-26T14:52:38.137Z,7.32
2022-07-26T14:55:06.520Z,7.72
2022-07-26T14:57:38.136Z,7.53
2022-07-26T15:00:12.433Z,7.68
2022-07-26T15:02:41.058Z,7.43
2022-07-26T15:05:09.767Z,7.45
2022-07-26T15:07:37.153Z,7.80
2022-07-26T15:10:05.759Z,8.57
2022-07-26T15:12:33.181Z,8.35
2022-07-26T15:15:00.327Z,8.68
2022-07-26T15:17:27.433Z,8.57
2022-07-26T15:19:54.946Z,8.15
2022-07-26T15:22:22.370Z,8.18
2022-07-26T15:24:49.561Z,8.55
2022-07-26T15:27:16.977Z,8.23
2022-07-26T15:29:44.630Z,8.63
2022-07-26T15:32:11.772Z,8.90
2022-07-26T15:34:39.194Z,8.75
2022-07-26T15:37:06.281Z,7.72
2022-07-26T15:39:33.317Z,8.07
2022-07-26T15:42:05.834Z,8.13
2022-07-26T15:44:37.557Z,8.20
2022-07-26T15:47:05.141Z,7.80
2022-07-26T15:49:32.527Z,9.10
2022-07-26T15:52:00.101Z,8.43
2022-07-26T15:54:27.459Z,7.35
2022-07-26T15:56:54.706Z,8.30
2022-07-26T15:59:21.844Z,8.95
2022-07-26T16:01:49.304Z,8.60
2022-07-26T16:04:16.796Z,8.50
2022-07-26T16:06:43.859Z,8.70
2022-07-26T16:09:17.717Z,8.18
2022-07-26T16:11:46.919Z,8.27
2022-07-26T16:14:14.364Z,8.07
2022-07-26T16:16:41.494Z,8.30
2022-07-26T16:19:09.741Z,9.07
2022-07-26T16:21:37.661Z,8.98
2022-07-26T16:24:07.551Z,9.32
2022-07-26T16:26:36.295Z,9.13
2022-07-26T16:29:04.235Z,8.98
2022-07-26T16:31:31.751Z,9.50
2022-07-26T16:33:59.251Z,9.63
2022-07-26T16:36:26.356Z,9.93
2022-07-26T16:38:53.442Z,9.98
2022-07-26T16:41:21.870Z,11.35
2022-07-26T16:43:48.964Z,11.00
2022-07-26T16:46:16.089Z,11.68
2022-07-26T16:48:46.568Z,12.95
2022-07-26T16:51:13.779Z,12.60
2022-07-26T16:53:41.212Z,12.50
2022-07-26T16:56:09.069Z,12.68
2022-07-26T16:58:37.668Z,12.60
2022-07-26T17:01:04.832Z,12.45
2022-07-26T17:03:32.250Z,12.93
2022-07-26T17:06:04.313Z,13.52
2022-07-26T17:08:34.443Z,12.75
2022-07-26T17:11:01.750Z,12.85
2022-07-26T17:13:28.822Z,13.07
2022-07-26T17:15:56.273Z,13.43
2022-07-26T17:18:23.549Z,12.77
2022-07-26T17:20:50.858Z,13.40
2022-07-26T17:23:21.265Z,13.35
2022-07-26T17:25:48.394Z,13.60
2022-07-26T17:28:15.486Z,13.05
2022-07-26T17:30:42.987Z,13.73
2022-07-26T17:33:10.659Z,13.90
2022-07-26T17:35:37.854Z,13.90
2022-07-26T17:38:05.251Z,13.32
2022-07-26T17:40:33.732Z,13.68
2022-07-26T17:43:01.022Z,13.85
2022-07-26T17:45:28.404Z,13.02
2022-07-26T17:47:55.513Z,13.82
2022-07-26T17:50:38.790Z,14.82
2022-07-26T17:55:33.778Z,13.68
2022-07-26T17:58:00.919Z,14.02
2022-07-26T18:00:29.282Z,13.43
2022-07-26T18:02:57.521Z,13.23
2022-07-26T18:05:31.713Z,12.75
2022-07-26T18:08:01.606Z,13.65
2022-07-26T18:10:29.207Z,14.05
2022-07-26T18:12:56.436Z,14.07
2022-07-26T18:15:24.037Z,13.88
2022-07-26T18:17:51.104Z,13.98
2022-07-26T18:20:18.195Z,14.68
2022-07-26T18:22:47.068Z,14.63
2022-07-26T18:25:17.441Z,14.15
2022-07-26T18:27:44.533Z,15.57
2022-07-26T18:30:12.131Z,15.32
2022-07-26T18:32:39.182Z,15.40
2022-07-26T18:35:06.585Z,16.58
2022-07-26T18:37:34.006Z,16.23
2022-07-26T18:40:01.162Z,16.48
2022-07-26T18:42:28.198Z,16.50
2022-07-26T18:44:58.425Z,16.25
2022-07-26T18:47:25.630Z,16.48
2022-07-26T18:49:52.697Z,17.02
2022-07-26T18:52:31.904Z,17.05
2022-07-26T18:55:18.762Z,16.90
2022-07-26T18:57:46.214Z,17.70
2022-07-26T19:00:17.056Z,17.52
2022-07-26T19:02:45.389Z,18.33
2022-07-26T19:05:14.253Z,17.05
2022-07-26T19:07:41.439Z,17.35
2022-07-26T19:10:09.835Z,17.25
2022-07-26T19:12:37.471Z,17.40
2022-07-26T19:15:06.417Z,16.70
2022-07-26T19:17:33.585Z,16.00
2022-07-26T19:20:01.047Z,16.08
2022-07-26T19:22:29.254Z,16.30
2022-07-26T19:24:57.359Z,15.27
2022-07-26T19:27:25.044Z,16.27
2022-07-26T19:29:52.091Z,16.45
2022-07-26T19:32:19.234Z,15.13
2022-07-26T19:34:46.585Z,16.23
2022-07-26T19:37:19.825Z,16.15
2022-07-26T19:39:48.856Z,15.77
2022-07-26T19:42:16.508Z,15.48
2022-07-26T19:44:43.701Z,15.20
2022-07-26T19:47:14.225Z,14.95
2022-07-26T19:49:41.373Z,14.98
2022-07-26T19:52:11.705Z,14.30
2022-07-26T19:54:39.773Z,13.93
2022-07-26T19:57:07.815Z,13.38
2022-07-26T19:59:35.091Z,14.23
2022-07-26T20:02:02.917Z,13.65
2022-07-26T20:04:30.440Z,13.43
2022-07-26T20:06:57.530Z,14.48
2022-07-26T20:09:24.681Z,13.52
2022-07-26T20:11:52.062Z,15.30
2022-07-26T20:14:20.131Z,13.98
2022-07-26T20:16:50.561Z,15.05
2022-07-26T20:19:21.563Z,14.25
2022-07-26T20:21:48.632Z,15.38
2022-07-26T20:24:15.726Z,14.13
2022-07-26T20:26:43.090Z,14.35
2022-07-26T20:29:11.483Z,14.82
2022-07-26T20:31:38.971Z,15.93
2022-07-26T20:34:06.391Z,14.48
2022-07-26T20:36:33.563Z,15.80
2022-07-26T20:39:01.073Z,15.05
2022-07-26T20:41:28.631Z,14.73
2022-07-26T20:44:01.221Z,14.70
2022-07-26T20:46:28.748Z,14.45
2022-07-26T20:48:56.109Z,13.48
2022-07-26T20:51:23.422Z,13.38
2022-07-26T20:53:50.803Z,13.68
2022-07-26T20:56:17.864Z,13.88
2022-07-26T20:58:44.915Z,14.23
2022-07-26T21:01:13.142Z,13.57
2022-07-26T21:03:40.392Z,12.63
2022-07-26T21:06:07.431Z,12.98
2022-07-26T21:08:35.119Z,13.07
2022-07-26T21:11:02.264Z,13.05
2022-07-26T21:13:29.360Z,12.68
2022-07-26T21:15:56.774Z,12.25
2022-07-26T21:18:25.847Z,11.80
2022-07-26T21:20:53.278Z,12.07
2022-07-26T21:23:22.977Z,12.10
2022-07-26T21:25:50.053Z,11.98
2022-07-26T21:28:25.614Z,11.55
2022-07-26T21:30:52.687Z,12.30
2022-07-26T21:33:19.780Z,12.07
2022-07-26T21:35:47.192Z,11.75
2022-07-26T21:38:14.264Z,12.52
2022-07-26T21:40:41.372Z,11.10
2022-07-26T21:43:08.807Z,12.15
2022-07-26T21:45:35.998Z,12.07
2022-07-26T21:48:03.553Z,10.82
2022-07-26T21:50:31.103Z,10.90
2022-07-26T21:52:58.548Z,11.07
2022-07-26T21:55:25.646Z,10.30
2022-07-26T21:57:53.048Z,10.82
2022-07-26T22:00:20.273Z,10.23
2022-07-26T22:02:47.735Z,10.57
2022-07-26T22:05:33.716Z,10.50
2022-07-26T22:08:02.146Z,11.10
2022-07-26T22:10:29.194Z,10.48
2022-07-26T22:12:56.243Z,11.23
2022-07-26T22:15:23.574Z,10.00
2022-07-26T22:17:50.798Z,10.73
2022-07-26T22:20:17.902Z,10.20
2022-07-26T22:22:45.269Z,10.70
2022-07-26T22:25:12.595Z,10.10
2022-07-26T22:27:39.656Z,9.98
2022-07-26T22:30:08.015Z,10.07
2022-07-26T22:32:35.138Z,10.43
2022-07-26T22:35:02.238Z,10.23
2022-07-26T22:37:29.631Z,10.48
2022-07-26T22:39:56.714Z,10.02
2022-07-26T22:42:23.806Z,10.20
2022-07-26T22:44:51.192Z,10.70
2022-07-26T22:47:18.310Z,10.80
2022-07-26T22:49:45.469Z,10.48
2022-07-26T22:52:12.968Z,9.48
2022-07-26T22:54:40.034Z,10.00
2022-07-26T22:57:07.124Z,9.25
2022-07-26T22:59:34.562Z,9.60
2022-07-26T23:02:01.699Z,9.70
2022-07-26T23:04:28.831Z,9.68
2022-07-26T23:06:56.187Z,9.70
2022-07-26T23:09:25.802Z,9.68
2022-07-26T23:11:52.854Z,10.05
2022-07-26T23:14:20.240Z,9.10
2022-07-26T23:16:47.371Z,9.55
2022-07-26T23:19:14.768Z,8.63
2022-07-26T23:21:42.517Z,8.50
2022-07-26T23:24:09.674Z,8.70
2022-07-26T23:26:37.224Z,8.45
2022-07-26T23:29:05.117Z,7.53
2022-07-26T23:31:32.391Z,8.63
2022-07-26T23:33:59.762Z,7.20
2022-07-26T23:36:28.782Z,7.55
2022-07-26T23:38:59.644Z,8.32
2022-07-26T23:41:28.298Z,8.55
2022-07-26T23:43:55.655Z,8.43
2022-07-26T23:46:23.363Z,7.60
2022-07-26T23:48:51.330Z,8.27
2022-07-26T23:51:19.572Z,8.20
2022-07-26T23:53:47.306Z,7.78
2022-07-26T23:56:15.493Z,7.07
2022-07-26T23:58:42.701Z,6.78
